createdAt,value
2023-12-03T00:00:46.033Z,66.93
2023-12-03T00:03:13.402Z,66.69
2023-12-03T00:05:40.834Z,67.14
2023-12-03T00:08:08.195Z,67.19
2023-12-03T00:10:35.061Z,67.06
2023-12-03T00:13:01.627Z,66.80
2023-12-03T00:15:28.205Z,67.53
2023-12-03T00:17:54.977Z,67.87
2023-12-03T00:20:21.574Z,67.38
2023-12-03T00:22:48.178Z,67.33
2023-12-03T00:25:14.673Z,67.67
2023-12-03T00:27:41.156Z,67.79
2023-12-03T00:30:08.225Z,67.51
2023-12-03T00:32:34.808Z,67.75
2023-12-03T00:35:01.289Z,67.81
2023-12-03T00:37:28.300Z,67.29
2023-12-03T00:39:55.197Z,67.49
2023-12-03T00:42:21.752Z,67.18
2023-12-03T00:44:49.093Z,67.58
2023-12-03T00:47:15.794Z,67.29
2023-12-03T00:49:44.756Z,67.60
2023-12-03T00:52:12.094Z,66.76
2023-12-03T00:54:38.564Z,66.45
2023-12-03T00:57:05.143Z,66.79
2023-12-03T00:59:31.615Z,66.90
2023-12-03T01:01:58.118Z,67.22
2023-12-03T01:04:24.612Z,67.40
2023-12-03T01:06:51.224Z,67.43
2023-12-03T01:09:17.810Z,67.82
2023-12-03T01:11:44.379Z,67.40
2023-12-03T01:14:10.994Z,67.72
2023-12-03T01:16:37.488Z,67.39
2023-12-03T01:19:04.114Z,68.02
2023-12-03T01:21:30.774Z,68.21
2023-12-03T01:23:57.678Z,67.97
2023-12-03T01:26:24.172Z,66.84
2023-12-03T01:28:50.627Z,67.31
2023-12-03T01:31:17.326Z,68.00
2023-12-03T01:33:43.887Z,68.12
2023-12-03T01:36:10.569Z,68.47
2023-12-03T01:38:37.118Z,68.49
2023-12-03T01:41:03.807Z,68.41
2023-12-03T01:43:30.344Z,68.48
2023-12-03T01:45:57.268Z,68.69
2023-12-03T01:48:24.101Z,68.94
2023-12-03T01:50:50.892Z,69.10
2023-12-03T01:53:19.309Z,68.30
2023-12-03T01:55:45.979Z,68.40
2023-12-03T01:58:12.501Z,67.70
2023-12-03T02:00:39.769Z,67.24
2023-12-03T02:03:14.271Z,67.78
2023-12-03T02:05:40.757Z,67.68
2023-12-03T02:08:07.294Z,67.35
2023-12-03T02:10:34.724Z,67.17
2023-12-03T02:13:01.738Z,67.35
2023-12-03T02:15:28.886Z,67.50
2023-12-03T02:17:55.438Z,67.75
2023-12-03T02:20:21.904Z,66.77
2023-12-03T02:23:01.555Z,67.26
2023-12-03T02:25:28.267Z,67.30
2023-12-03T02:27:54.833Z,67.35
2023-12-03T02:30:21.332Z,67.58
2023-12-03T02:32:49.083Z,67.79
2023-12-03T02:35:15.876Z,68.06
2023-12-03T02:37:42.374Z,68.02
2023-12-03T02:40:09.546Z,67.65
2023-12-03T02:42:36.097Z,67.49
2023-12-03T02:45:02.647Z,67.58
2023-12-03T02:47:29.158Z,67.02
2023-12-03T02:49:55.694Z,66.73
2023-12-03T02:52:22.181Z,66.98
2023-12-03T02:54:48.721Z,66.80
2023-12-03T02:57:15.261Z,65.88
2023-12-03T02:59:41.740Z,67.08
2023-12-03T03:02:08.278Z,66.78
2023-12-03T03:04:34.896Z,66.38
2023-12-03T03:07:01.438Z,66.62
2023-12-03T03:09:27.947Z,65.89
2023-12-03T03:11:55.316Z,66.80
2023-12-03T03:14:21.905Z,66.58
2023-12-03T03:16:48.367Z,66.67
2023-12-03T03:19:14.923Z,65.96
2023-12-03T03:21:41.596Z,66.45
2023-12-03T03:24:08.585Z,65.86
2023-12-03T03:26:35.072Z,66.25
2023-12-03T03:29:01.630Z,66.01
2023-12-03T03:31:28.131Z,66.45
2023-12-03T03:33:55.544Z,66.75
2023-12-03T03:36:22.139Z,66.65
2023-12-03T03:38:48.633Z,66.78
2023-12-03T03:41:15.129Z,67.29
2023-12-03T03:43:41.811Z,67.35
2023-12-03T03:46:10.548Z,66.18
2023-12-03T03:48:37.128Z,66.36
2023-12-03T03:51:06.228Z,66.77
2023-12-03T03:53:32.728Z,67.27
2023-12-03T03:55:59.204Z,66.62
2023-12-03T03:58:25.703Z,66.17
2023-12-03T04:00:52.640Z,65.98
2023-12-03T04:03:19.155Z,66.17
2023-12-03T04:05:45.636Z,66.47
2023-12-03T04:08:12.146Z,67.02
2023-12-03T04:10:38.794Z,66.64
2023-12-03T04:13:05.318Z,66.43
2023-12-03T04:15:32.956Z,66.68
2023-12-03T04:17:59.547Z,66.87
2023-12-03T04:20:26.095Z,66.80
2023-12-03T04:22:52.543Z,67.20
2023-12-03T04:25:18.990Z,67.28
2023-12-03T04:27:45.559Z,67.34
2023-12-03T04:30:12.606Z,67.02
2023-12-03T04:32:39.134Z,66.86
2023-12-03T04:35:05.870Z,66.22
2023-12-03T04:37:32.305Z,65.94
2023-12-03T04:39:59.112Z,65.18
2023-12-03T04:42:25.551Z,64.84
2023-12-03T04:44:52.109Z,65.16
2023-12-03T04:47:18.608Z,64.32
2023-12-03T04:49:45.095Z,64.14
2023-12-03T04:52:11.574Z,64.16
2023-12-03T04:54:38.169Z,63.68
2023-12-03T04:57:05.116Z,64.39
2023-12-03T04:59:31.644Z,64.85
2023-12-03T05:01:58.190Z,65.58
2023-12-03T05:04:26.675Z,65.56
2023-12-03T05:06:53.917Z,65.64
2023-12-03T05:09:21.258Z,65.63
2023-12-03T05:11:47.759Z,65.76
2023-12-03T05:14:14.245Z,64.93
2023-12-03T05:16:40.711Z,64.74
2023-12-03T05:19:07.384Z,64.56
2023-12-03T05:21:34.034Z,62.99
2023-12-03T05:24:00.563Z,62.96
2023-12-03T05:26:27.544Z,63.64
2023-12-03T05:28:54.041Z,64.54
2023-12-03T05:31:20.613Z,65.22
2023-12-03T05:33:47.183Z,65.50
2023-12-03T05:36:21.730Z,65.95
2023-12-03T05:38:48.190Z,66.43
2023-12-03T05:41:14.817Z,66.08
2023-12-03T05:43:41.310Z,66.43
2023-12-03T05:46:07.961Z,66.97
2023-12-03T05:48:34.730Z,65.84
2023-12-03T05:51:01.280Z,64.98
2023-12-03T05:53:27.748Z,65.25
2023-12-03T05:55:54.205Z,66.00
2023-12-03T05:58:20.665Z,65.47
2023-12-03T06:00:47.196Z,65.40
2023-12-03T06:03:13.784Z,65.64
2023-12-03T06:05:40.725Z,65.80
2023-12-03T06:08:07.269Z,65.77
2023-12-03T06:10:33.764Z,65.70
2023-12-03T06:13:00.271Z,65.72
2023-12-03T06:15:26.772Z,65.68
2023-12-03T06:17:54.410Z,65.92
2023-12-03T06:20:20.905Z,66.04
2023-12-03T06:22:47.401Z,66.32
2023-12-03T06:25:13.865Z,66.23
2023-12-03T06:27:41.343Z,66.01
2023-12-03T06:30:09.255Z,65.47
2023-12-03T06:32:35.778Z,64.83
2023-12-03T06:35:04.525Z,65.26
2023-12-03T06:37:31.337Z,65.10
2023-12-03T06:39:57.859Z,65.13
2023-12-03T06:42:27.029Z,65.79
2023-12-03T06:44:53.698Z,66.17
2023-12-03T06:47:20.135Z,66.44
2023-12-03T06:49:46.624Z,66.57
2023-12-03T06:52:13.135Z,66.74
2023-12-03T06:54:39.630Z,67.27
2023-12-03T06:57:07.345Z,67.38
2023-12-03T06:59:33.825Z,67.27
2023-12-03T07:02:00.438Z,66.59
2023-12-03T07:04:27.068Z,66.10
2023-12-03T07:06:53.684Z,65.54
2023-12-03T07:09:37.190Z,65.01
2023-12-03T07:12:06.726Z,62.63
2023-12-03T07:14:33.336Z,62.05
2023-12-03T07:16:59.810Z,62.26
2023-12-03T07:19:26.321Z,62.59
2023-12-03T07:21:52.856Z,62.10
2023-12-03T07:24:19.410Z,62.95
2023-12-03T07:26:45.941Z,64.39
2023-12-03T07:29:12.554Z,64.39
2023-12-03T07:31:39.210Z,64.24
2023-12-03T07:34:05.792Z,64.46
2023-12-03T07:36:32.371Z,64.95
2023-12-03T07:38:59.380Z,64.79
2023-12-03T07:41:25.982Z,65.83
2023-12-03T07:43:52.638Z,65.58
2023-12-03T07:46:19.455Z,66.18
2023-12-03T07:48:46.930Z,66.32
2023-12-03T07:51:13.524Z,66.04
2023-12-03T07:53:40.425Z,65.83
2023-12-03T07:56:07.765Z,66.36
2023-12-03T07:58:35.538Z,66.99
2023-12-03T08:01:02.047Z,67.11
2023-12-03T08:03:28.540Z,66.56
2023-12-03T08:05:55.176Z,66.26
2023-12-03T08:08:21.925Z,66.29
2023-12-03T08:10:48.431Z,66.74
2023-12-03T08:13:14.904Z,66.52
2023-12-03T08:15:41.454Z,65.94
2023-12-03T08:18:08.066Z,65.84
2023-12-03T08:20:34.596Z,66.17
2023-12-03T08:23:01.088Z,66.20
2023-12-03T08:25:27.553Z,65.99
2023-12-03T08:27:54.029Z,66.08
2023-12-03T08:30:20.697Z,66.33
2023-12-03T08:32:47.219Z,65.96
2023-12-03T08:35:13.873Z,65.13
2023-12-03T08:37:40.406Z,64.68
2023-12-03T08:40:07.583Z,64.37
2023-12-03T08:42:34.188Z,64.69
2023-12-03T08:45:00.713Z,64.66
2023-12-03T08:47:27.225Z,64.61
2023-12-03T08:49:54.031Z,64.85
2023-12-03T08:52:20.561Z,64.47
2023-12-03T08:54:47.079Z,64.12
2023-12-03T08:57:13.633Z,63.91
2023-12-03T08:59:40.126Z,63.50
2023-12-03T09:02:06.816Z,63.54
2023-12-03T09:04:33.404Z,63.67
2023-12-03T09:07:01.538Z,63.56
2023-12-03T09:09:28.257Z,63.80
2023-12-03T09:11:55.662Z,63.15
2023-12-03T09:14:22.189Z,62.80
2023-12-03T09:16:48.740Z,62.21
2023-12-03T09:19:15.398Z,62.25
2023-12-03T09:21:42.000Z,62.27
2023-12-03T09:24:08.623Z,62.73
2023-12-03T09:26:35.090Z,63.14
2023-12-03T09:29:01.615Z,63.99
2023-12-03T09:31:28.150Z,64.11
2023-12-03T09:33:54.866Z,64.41
2023-12-03T09:36:21.639Z,64.68
2023-12-03T09:38:48.147Z,64.90
2023-12-03T09:41:18.280Z,64.36
2023-12-03T09:43:48.046Z,64.26
2023-12-03T09:46:14.698Z,64.88
2023-12-03T09:48:44.957Z,64.94
2023-12-03T09:51:13.203Z,65.32
2023-12-03T09:53:47.538Z,65.63
2023-12-03T09:56:14.309Z,65.35
2023-12-03T09:58:41.100Z,65.17
2023-12-03T10:01:07.865Z,65.11
2023-12-03T10:03:34.965Z,65.74
2023-12-03T10:06:01.571Z,66.41
2023-12-03T10:08:32.229Z,65.77
2023-12-03T10:11:04.824Z,65.15
2023-12-03T10:13:35.789Z,64.34
2023-12-03T10:16:02.491Z,64.04
2023-12-03T10:18:29.177Z,63.63
2023-12-03T10:21:07.335Z,63.08
2023-12-03T10:23:38.618Z,62.75
2023-12-03T10:26:12.470Z,62.84
2023-12-03T10:28:40.704Z,63.13
2023-12-03T10:31:12.366Z,63.37
2023-12-03T10:33:39.643Z,62.79
2023-12-03T10:36:06.598Z,63.27
2023-12-03T10:38:43.316Z,62.85
2023-12-03T10:41:11.719Z,63.55
2023-12-03T10:43:39.333Z,63.77
2023-12-03T10:46:10.559Z,63.72
2023-12-03T10:48:37.661Z,64.26
2023-12-03T10:51:06.426Z,63.88
2023-12-03T10:53:34.183Z,63.84
2023-12-03T10:56:03.362Z,64.36
2023-12-03T10:58:40.607Z,64.13
2023-12-03T11:01:23.370Z,63.72
2023-12-03T11:04:07.117Z,63.66
2023-12-03T11:06:35.857Z,62.91
2023-12-03T11:09:03.045Z,62.53
2023-12-03T11:11:30.800Z,63.37
2023-12-03T11:13:59.803Z,62.91
2023-12-03T11:16:38.115Z,62.76
2023-12-03T11:19:11.772Z,63.13
2023-12-03T11:22:06.352Z,63.78
2023-12-03T11:24:58.255Z,63.53
2023-12-03T11:27:27.217Z,63.86
2023-12-03T11:29:55.859Z,63.57
2023-12-03T11:32:30.674Z,62.72
2023-12-03T11:35:08.200Z,63.15
2023-12-03T11:37:35.248Z,62.28
2023-12-03T11:40:10.176Z,61.47
2023-12-03T11:42:54.764Z,61.45
2023-12-03T11:45:24.640Z,61.39
2023-12-03T11:48:08.776Z,61.38
2023-12-03T11:50:47.287Z,61.70
2023-12-03T11:53:17.150Z,62.01
2023-12-03T11:55:49.933Z,61.84
2023-12-03T11:58:17.227Z,62.18
2023-12-03T12:00:47.048Z,62.15
2023-12-03T12:03:13.676Z,61.34
2023-12-03T12:05:47.766Z,62.38
2023-12-03T12:08:22.369Z,62.08
2023-12-03T12:10:53.357Z,62.15
2023-12-03T12:13:21.939Z,61.65
2023-12-03T12:15:48.587Z,62.80
2023-12-03T12:18:15.260Z,62.56
2023-12-03T12:20:41.757Z,62.56
2023-12-03T12:23:08.287Z,62.09
2023-12-03T12:25:34.815Z,61.96
2023-12-03T12:28:01.534Z,63.14
2023-12-03T12:30:34.549Z,61.90
2023-12-03T12:33:05.761Z,62.28
2023-12-03T12:35:33.922Z,62.31
2023-12-03T12:38:07.645Z,63.29
2023-12-03T12:40:39.617Z,62.62
2023-12-03T12:43:13.567Z,61.59
2023-12-03T12:45:41.225Z,61.29
2023-12-03T12:48:28.662Z,62.56
2023-12-03T12:50:57.474Z,62.38
2023-12-03T12:53:24.096Z,62.84
2023-12-03T12:55:51.711Z,62.78
2023-12-03T12:58:18.264Z,63.24
2023-12-03T13:00:44.797Z,63.13
2023-12-03T13:03:11.345Z,63.94
2023-12-03T13:05:37.825Z,63.99
2023-12-03T13:08:04.676Z,62.82
2023-12-03T13:10:34.348Z,63.35
2023-12-03T13:13:00.882Z,63.11
2023-12-03T13:15:27.532Z,62.87
2023-12-03T13:17:55.763Z,63.73
2023-12-03T13:20:23.836Z,61.50
2023-12-03T13:22:50.962Z,60.88
2023-12-03T13:25:18.704Z,60.81
2023-12-03T13:27:45.966Z,61.26
2023-12-03T13:30:12.912Z,61.22
2023-12-03T13:32:41.554Z,61.47
2023-12-03T13:35:10.199Z,61.47
2023-12-03T13:37:37.668Z,62.43
2023-12-03T13:40:07.692Z,63.21
2023-12-03T13:42:35.743Z,63.19
2023-12-03T13:45:04.725Z,63.12
2023-12-03T13:47:32.554Z,62.55
2023-12-03T13:50:00.349Z,62.54
2023-12-03T13:52:26.842Z,62.54
2023-12-03T13:54:54.905Z,61.67
2023-12-03T13:57:21.475Z,62.55
2023-12-03T13:59:47.974Z,62.14
2023-12-03T14:02:21.161Z,61.84
2023-12-03T14:05:07.361Z,62.07
2023-12-03T14:07:42.822Z,62.60
2023-12-03T14:10:12.670Z,63.75
2023-12-03T14:12:40.409Z,64.26
2023-12-03T14:15:07.588Z,64.27
2023-12-03T14:17:34.713Z,64.57
2023-12-03T14:20:01.300Z,65.06
2023-12-03T14:22:28.307Z,65.23
2023-12-03T14:24:54.955Z,65.25
2023-12-03T14:27:21.828Z,65.43
2023-12-03T14:29:48.355Z,65.51
2023-12-03T14:32:14.918Z,65.64
2023-12-03T14:34:41.513Z,65.93
2023-12-03T14:37:08.239Z,66.22
2023-12-03T14:39:34.921Z,66.07
2023-12-03T14:42:01.915Z,65.73
2023-12-03T14:44:28.414Z,65.77
2023-12-03T14:46:55.075Z,66.41
2023-12-03T14:49:21.800Z,66.67
2023-12-03T14:51:48.426Z,66.74
2023-12-03T14:54:20.851Z,66.97
2023-12-03T14:56:48.103Z,67.03
2023-12-03T14:59:14.626Z,66.84
2023-12-03T15:01:42.054Z,67.50
2023-12-03T15:04:08.736Z,67.25
2023-12-03T15:06:35.410Z,67.45
2023-12-03T15:09:02.013Z,67.65
2023-12-03T15:11:28.585Z,68.01
2023-12-03T15:13:55.241Z,68.32
2023-12-03T15:16:21.789Z,68.10
2023-12-03T15:18:48.451Z,68.39
2023-12-03T15:21:15.180Z,68.44
2023-12-03T15:23:43.249Z,68.42
2023-12-03T15:26:11.106Z,68.78
2023-12-03T15:28:38.712Z,69.00
2023-12-03T15:31:05.615Z,69.23
2023-12-03T15:33:32.226Z,69.18
2023-12-03T15:35:58.863Z,69.06
2023-12-03T15:38:25.378Z,69.64
2023-12-03T15:40:51.908Z,69.40
2023-12-03T15:43:26.358Z,68.78
2023-12-03T15:46:01.480Z,69.34
2023-12-03T15:48:29.845Z,69.94
2023-12-03T15:50:57.072Z,69.97
2023-12-03T15:53:23.678Z,70.40
2023-12-03T15:55:51.067Z,70.44
2023-12-03T15:58:17.846Z,70.81
2023-12-03T16:00:45.688Z,70.74
2023-12-03T16:03:12.345Z,71.06
2023-12-03T16:05:38.922Z,70.79
2023-12-03T16:08:05.508Z,69.79
2023-12-03T16:10:32.115Z,69.49
2023-12-03T16:12:58.793Z,68.93
2023-12-03T16:15:25.323Z,68.28
2023-12-03T16:17:52.165Z,67.84
2023-12-03T16:20:19.272Z,67.65
2023-12-03T16:22:45.925Z,67.03
2023-12-03T16:25:12.663Z,66.36
2023-12-03T16:27:39.221Z,66.38
2023-12-03T16:30:06.582Z,66.74
2023-12-03T16:32:33.975Z,66.64
2023-12-03T16:35:00.530Z,67.06
2023-12-03T16:37:27.160Z,66.43
2023-12-03T16:39:53.684Z,66.32
2023-12-03T16:42:20.894Z,65.96
2023-12-03T16:44:48.592Z,65.89
2023-12-03T16:47:15.093Z,66.63
2023-12-03T16:49:43.904Z,66.66
2023-12-03T16:52:12.223Z,66.45
2023-12-03T16:54:38.776Z,66.50
2023-12-03T16:57:06.790Z,67.05
2023-12-03T16:59:33.330Z,67.08
2023-12-03T17:01:59.874Z,67.22
2023-12-03T17:04:27.882Z,67.55
2023-12-03T17:06:55.728Z,67.48
2023-12-03T17:09:22.498Z,68.53
2023-12-03T17:11:49.296Z,68.49
2023-12-03T17:14:15.800Z,69.33
2023-12-03T17:16:42.518Z,69.16
2023-12-03T17:19:09.238Z,68.29
2023-12-03T17:21:36.716Z,67.15
2023-12-03T17:24:04.788Z,66.72
2023-12-03T17:26:31.870Z,66.87
2023-12-03T17:28:58.385Z,66.53
2023-12-03T17:31:25.033Z,66.67
2023-12-03T17:33:51.605Z,66.74
2023-12-03T17:36:19.030Z,66.94
2023-12-03T17:38:45.708Z,66.98
2023-12-03T17:41:12.639Z,65.81
2023-12-03T17:43:39.557Z,66.34
2023-12-03T17:46:06.418Z,65.66
2023-12-03T17:48:33.177Z,65.37
2023-12-03T17:51:00.752Z,65.92
2023-12-03T17:53:28.245Z,65.66
2023-12-03T17:56:24.526Z,65.56
2023-12-03T17:58:51.446Z,65.23
2023-12-03T18:01:20.011Z,65.44
2023-12-03T18:03:48.512Z,65.41
2023-12-03T18:06:15.266Z,65.13
2023-12-03T18:08:41.822Z,64.71
2023-12-03T18:11:08.445Z,65.72
2023-12-03T18:13:34.960Z,65.68
2023-12-03T18:16:04.027Z,64.89
2023-12-03T18:18:31.107Z,64.47
2023-12-03T18:20:57.812Z,64.38
2023-12-03T18:23:25.079Z,64.27
2023-12-03T18:25:51.694Z,65.22
2023-12-03T18:28:19.689Z,65.49
2023-12-03T18:30:46.732Z,64.87
2023-12-03T18:33:15.735Z,65.26
2023-12-03T18:35:42.610Z,64.73
2023-12-03T18:38:09.224Z,64.38
2023-12-03T18:40:35.849Z,64.39
2023-12-03T18:43:02.464Z,63.79
2023-12-03T18:45:29.108Z,64.20
2023-12-03T18:47:56.217Z,64.27
2023-12-03T18:50:23.111Z,64.00
2023-12-03T18:52:49.654Z,63.77
2023-12-03T18:55:16.958Z,64.54
2023-12-03T18:57:43.908Z,64.93
2023-12-03T19:00:14.101Z,64.32
2023-12-03T19:02:44.975Z,64.54
2023-12-03T19:05:13.129Z,64.62
2023-12-03T19:07:39.721Z,64.18
2023-12-03T19:10:07.473Z,64.77
2023-12-03T19:12:34.150Z,64.93
2023-12-03T19:15:00.751Z,64.14
2023-12-03T19:17:27.449Z,64.97
2023-12-03T19:19:54.006Z,64.70
2023-12-03T19:22:20.516Z,64.35
2023-12-03T19:24:47.101Z,65.00
2023-12-03T19:27:13.611Z,64.72
2023-12-03T19:29:40.170Z,64.58
2023-12-03T19:32:06.929Z,64.79
2023-12-03T19:34:33.601Z,64.87
2023-12-03T19:37:00.431Z,64.26
2023-12-03T19:39:30.215Z,64.55
2023-12-03T19:41:57.853Z,64.13
2023-12-03T19:44:24.374Z,64.02
2023-12-03T19:46:52.586Z,63.51
2023-12-03T19:49:19.166Z,63.01
2023-12-03T19:51:45.675Z,63.35
2023-12-03T19:54:12.241Z,63.95
2023-12-03T19:56:38.789Z,64.53
2023-12-03T19:59:05.297Z,64.48
2023-12-03T20:01:31.866Z,64.40
2023-12-03T20:03:58.684Z,63.93
2023-12-03T20:06:25.344Z,63.96
2023-12-03T20:08:52.133Z,64.25
2023-12-03T20:11:18.723Z,64.88
2023-12-03T20:13:45.320Z,64.25
2023-12-03T20:16:11.924Z,64.50
2023-12-03T20:18:38.705Z,64.41
2023-12-03T20:21:07.280Z,64.90
2023-12-03T20:23:34.273Z,64.85
2023-12-03T20:26:09.205Z,64.68
2023-12-03T20:28:36.336Z,64.72
2023-12-03T20:31:03.249Z,64.62
2023-12-03T20:33:29.840Z,64.12
2023-12-03T20:35:56.473Z,63.52
2023-12-03T20:38:23.253Z,63.60
2023-12-03T20:40:49.793Z,63.61
2023-12-03T20:43:16.711Z,63.96
2023-12-03T20:45:43.366Z,63.70
2023-12-03T20:48:09.992Z,63.72
2023-12-03T20:50:36.702Z,64.00
2023-12-03T20:53:03.370Z,64.57
2023-12-03T20:55:29.903Z,64.34
2023-12-03T20:57:56.970Z,64.90
2023-12-03T21:00:23.463Z,64.59
2023-12-03T21:02:49.952Z,65.28
2023-12-03T21:05:20.070Z,65.90
2023-12-03T21:07:47.496Z,66.12
2023-12-03T21:10:14.010Z,65.99
2023-12-03T21:12:40.620Z,66.49
2023-12-03T21:15:08.815Z,67.27
2023-12-03T21:17:35.419Z,67.87
2023-12-03T21:20:02.159Z,68.56
2023-12-03T21:22:28.641Z,68.71
2023-12-03T21:24:55.729Z,67.26
2023-12-03T21:27:22.253Z,66.69
2023-12-03T21:29:48.724Z,65.86
2023-12-03T21:32:15.298Z,65.00
2023-12-03T21:34:41.832Z,64.86
2023-12-03T21:37:08.777Z,64.33
2023-12-03T21:39:35.379Z,64.79
2023-12-03T21:42:02.033Z,64.55
2023-12-03T21:44:29.276Z,64.84
2023-12-03T21:46:55.949Z,64.93
2023-12-03T21:49:22.638Z,64.60
2023-12-03T21:51:49.331Z,64.33
2023-12-03T21:54:15.902Z,64.53
2023-12-03T21:56:43.703Z,64.82
2023-12-03T21:59:10.733Z,64.77
2023-12-03T22:01:39.228Z,64.26
2023-12-03T22:04:06.233Z,64.03
2023-12-03T22:06:33.385Z,63.21
2023-12-03T22:08:59.937Z,63.62
2023-12-03T22:11:26.433Z,63.71
2023-12-03T22:13:52.989Z,63.97
2023-12-03T22:16:19.444Z,63.67
2023-12-03T22:18:46.077Z,62.85
2023-12-03T22:21:12.617Z,62.89
2023-12-03T22:23:39.167Z,63.09
2023-12-03T22:26:05.788Z,62.80
2023-12-03T22:28:32.395Z,62.89
2023-12-03T22:30:59.437Z,62.99
2023-12-03T22:33:26.391Z,63.60
2023-12-03T22:35:53.099Z,64.13
2023-12-03T22:38:19.593Z,64.30
2023-12-03T22:40:46.026Z,63.44
2023-12-03T22:43:12.708Z,63.03
2023-12-03T22:45:39.266Z,63.22
2023-12-03T22:48:06.691Z,63.18
2023-12-03T22:50:33.238Z,63.26
2023-12-03T22:52:59.803Z,63.63
2023-12-03T22:55:26.336Z,63.51
2023-12-03T22:57:52.825Z,63.84
2023-12-03T23:00:21.960Z,64.12
2023-12-03T23:02:49.270Z,64.24
2023-12-03T23:05:24.973Z,64.43
2023-12-03T23:07:58.556Z,64.34
2023-12-03T23:10:25.040Z,64.31
2023-12-03T23:12:51.712Z,64.39
2023-12-03T23:15:19.364Z,64.58
2023-12-03T23:17:46.420Z,63.92
2023-12-03T23:20:12.992Z,64.26
2023-12-03T23:22:39.548Z,64.29
2023-12-03T23:25:06.399Z,64.38
2023-12-03T23:27:33.093Z,63.17
2023-12-03T23:29:59.726Z,62.37
2023-12-03T23:32:26.543Z,62.75
2023-12-03T23:34:53.082Z,62.62
2023-12-03T23:37:19.557Z,62.87
2023-12-03T23:39:46.080Z,63.13
2023-12-03T23:42:12.834Z,63.20
2023-12-03T23:44:39.300Z,63.87
2023-12-03T23:47:06.510Z,63.43
2023-12-03T23:49:33.259Z,62.87
2023-12-03T23:51:59.865Z,62.92
2023-12-03T23:54:26.445Z,63.30
2023-12-03T23:56:53.008Z,64.22
2023-12-03T23:59:19.472Z,63.39
